sensor_id;sensor_type;location;lat;lon;timestamp;P1;durP1;ratioP1;P2;durP2;ratioP2
54705;SDS011;40603;48.774;8.916;2023-05-21T00:01:02;19.02;;;12.90;;
54705;SDS011;40603;48.774;8.916;2023-05-21T00:03:29;17.92;;;12.50;;
54705;SDS011;40603;48.774;8.916;2023-05-21T00:05:55;19.55;;;12.95;;
54705;SDS011;40603;48.774;8.916;2023-05-21T00:08:20;19.77;;;12.35;;
54705;SDS011;40603;48.774;8.916;2023-05-21T00:10:46;17.60;;;13.82;;
54705;SDS011;40603;48.774;8.916;2023-05-21T00:13:11;16.27;;;12.68;;
54705;SDS011;40603;48.774;8.916;2023-05-21T00:15:37;17.67;;;13.07;;
54705;SDS011;40603;48.774;8.916;2023-05-21T00:18:02;19.73;;;12.38;;
54705;SDS011;40603;48.774;8.916;2023-05-21T00:20:28;16.05;;;12.30;;
54705;SDS011;40603;48.774;8.916;2023-05-21T00:22:56;15.80;;;12.35;;
54705;SDS011;40603;48.774;8.916;2023-05-21T00:27:51;16.38;;;12.65;;
54705;SDS011;40603;48.774;8.916;2023-05-21T00:30:17;25.33;;;13.30;;
54705;SDS011;40603;48.774;8.916;2023-05-21T00:32:42;17.65;;;11.88;;
54705;SDS011;40603;48.774;8.916;2023-05-21T00:35:08;17.35;;;13.70;;
54705;SDS011;40603;48.774;8.916;2023-05-21T00:37:33;16.88;;;12.43;;
54705;SDS011;40603;48.774;8.916;2023-05-21T00:39:59;15.65;;;12.98;;
54705;SDS011;40603;48.774;8.916;2023-05-21T00:42:25;18.38;;;13.75;;
54705;SDS011;40603;48.774;8.916;2023-05-21T00:44:51;18.80;;;13.75;;
54705;SDS011;40603;48.774;8.916;2023-05-21T00:47:18;17.80;;;13.07;;
54705;SDS011;40603;48.774;8.916;2023-05-21T00:49:45;21.10;;;14.30;;
54705;SDS011;40603;48.774;8.916;2023-05-21T00:52:12;17.95;;;13.38;;
54705;SDS011;40603;48.774;8.916;2023-05-21T00:54:37;18.25;;;14.05;;
54705;SDS011;40603;48.774;8.916;2023-05-21T00:57:03;21.52;;;14.32;;
54705;SDS011;40603;48.774;8.916;2023-05-21T00:59:30;18.38;;;14.13;;
54705;SDS011;40603;48.774;8.916;2023-05-21T01:01:55;17.70;;;14.27;;
54705;SDS011;40603;48.774;8.916;2023-05-21T01:04:23;20.52;;;14.43;;
54705;SDS011;40603;48.774;8.916;2023-05-21T01:06:49;18.23;;;13.80;;
54705;SDS011;40603;48.774;8.916;2023-05-21T01:09:14;21.48;;;14.25;;
54705;SDS011;40603;48.774;8.916;2023-05-21T01:11:41;20.27;;;14.18;;
54705;SDS011;40603;48.774;8.916;2023-05-21T01:14:09;18.60;;;13.48;;
54705;SDS011;40603;48.774;8.916;2023-05-21T01:16:36;18.90;;;14.52;;
54705;SDS011;40603;48.774;8.916;2023-05-21T01:19:03;18.63;;;14.30;;
54705;SDS011;40603;48.774;8.916;2023-05-21T01:21:29;17.80;;;13.63;;
54705;SDS011;40603;48.774;8.916;2023-05-21T01:23:55;18.00;;;13.10;;
54705;SDS011;40603;48.774;8.916;2023-05-21T01:26:20;19.85;;;13.30;;
54705;SDS011;40603;48.774;8.916;2023-05-21T01:28:45;23.08;;;15.52;;
54705;SDS011;40603;48.774;8.916;2023-05-21T01:31:22;22.63;;;14.77;;
54705;SDS011;40603;48.774;8.916;2023-05-21T01:34:05;19.45;;;13.88;;
54705;SDS011;40603;48.774;8.916;2023-05-21T01:36:35;20.00;;;14.90;;
54705;SDS011;40603;48.774;8.916;2023-05-21T01:39:19;21.63;;;15.38;;
54705;SDS011;40603;48.774;8.916;2023-05-21T01:41:53;22.48;;;15.02;;
54705;SDS011;40603;48.774;8.916;2023-05-21T01:44:20;18.52;;;14.80;;
54705;SDS011;40603;48.774;8.916;2023-05-21T01:46:46;22.48;;;15.00;;
54705;SDS011;40603;48.774;8.916;2023-05-21T01:49:13;18.23;;;14.10;;
54705;SDS011;40603;48.774;8.916;2023-05-21T01:51:39;19.42;;;14.23;;
54705;SDS011;40603;48.774;8.916;2023-05-21T01:54:04;19.58;;;14.65;;
54705;SDS011;40603;48.774;8.916;2023-05-21T01:56:30;20.15;;;14.93;;
54705;SDS011;40603;48.774;8.916;2023-05-21T01:58:58;21.48;;;15.27;;
54705;SDS011;40603;48.774;8.916;2023-05-21T02:01:23;21.67;;;15.23;;
54705;SDS011;40603;48.774;8.916;2023-05-21T02:03:50;20.60;;;15.75;;
54705;SDS011;40603;48.774;8.916;2023-05-21T02:06:15;20.55;;;15.93;;
54705;SDS011;40603;48.774;8.916;2023-05-21T02:08:40;22.40;;;16.25;;
54705;SDS011;40603;48.774;8.916;2023-05-21T02:11:06;24.75;;;16.17;;
54705;SDS011;40603;48.774;8.916;2023-05-21T02:13:31;21.77;;;15.73;;
54705;SDS011;40603;48.774;8.916;2023-05-21T02:15:56;19.58;;;15.02;;
54705;SDS011;40603;48.774;8.916;2023-05-21T02:18:22;20.40;;;16.40;;
54705;SDS011;40603;48.774;8.916;2023-05-21T02:20:47;20.48;;;15.20;;
54705;SDS011;40603;48.774;8.916;2023-05-21T02:23:12;23.30;;;15.85;;
54705;SDS011;40603;48.774;8.916;2023-05-21T02:25:37;25.58;;;16.88;;
54705;SDS011;40603;48.774;8.916;2023-05-21T02:28:03;23.63;;;17.45;;
54705;SDS011;40603;48.774;8.916;2023-05-21T02:30:28;22.08;;;16.20;;
54705;SDS011;40603;48.774;8.916;2023-05-21T02:32:54;22.08;;;15.38;;
54705;SDS011;40603;48.774;8.916;2023-05-21T02:35:19;21.63;;;16.30;;
54705;SDS011;40603;48.774;8.916;2023-05-21T02:37:45;25.27;;;15.82;;
54705;SDS011;40603;48.774;8.916;2023-05-21T02:40:10;22.67;;;16.15;;
54705;SDS011;40603;48.774;8.916;2023-05-21T02:42:36;24.20;;;17.17;;
54705;SDS011;40603;48.774;8.916;2023-05-21T02:45:04;23.55;;;16.50;;
54705;SDS011;40603;48.774;8.916;2023-05-21T02:47:30;22.35;;;17.08;;
54705;SDS011;40603;48.774;8.916;2023-05-21T02:49:57;23.75;;;16.65;;
54705;SDS011;40603;48.774;8.916;2023-05-21T02:52:23;24.73;;;17.85;;
54705;SDS011;40603;48.774;8.916;2023-05-21T02:54:48;25.00;;;17.08;;
54705;SDS011;40603;48.774;8.916;2023-05-21T02:57:14;22.65;;;17.05;;
54705;SDS011;40603;48.774;8.916;2023-05-21T02:59:39;23.23;;;16.83;;
54705;SDS011;40603;48.774;8.916;2023-05-21T03:02:05;21.35;;;15.93;;
54705;SDS011;40603;48.774;8.916;2023-05-21T03:04:30;23.27;;;16.15;;
54705;SDS011;40603;48.774;8.916;2023-05-21T03:06:57;23.83;;;16.90;;
54705;SDS011;40603;48.774;8.916;2023-05-21T03:09:26;23.63;;;16.15;;
54705;SDS011;40603;48.774;8.916;2023-05-21T03:11:51;23.05;;;15.63;;
54705;SDS011;40603;48.774;8.916;2023-05-21T03:14:16;25.15;;;17.52;;
54705;SDS011;40603;48.774;8.916;2023-05-21T03:16:41;24.85;;;16.65;;
54705;SDS011;40603;48.774;8.916;2023-05-21T03:19:07;24.70;;;16.45;;
54705;SDS011;40603;48.774;8.916;2023-05-21T03:21:33;24.15;;;16.17;;
54705;SDS011;40603;48.774;8.916;2023-05-21T03:23:58;23.67;;;16.25;;
54705;SDS011;40603;48.774;8.916;2023-05-21T03:26:24;28.63;;;16.65;;
54705;SDS011;40603;48.774;8.916;2023-05-21T03:28:51;22.60;;;16.65;;
54705;SDS011;40603;48.774;8.916;2023-05-21T03:31:17;25.50;;;16.60;;
54705;SDS011;40603;48.774;8.916;2023-05-21T03:33:42;24.73;;;16.23;;
54705;SDS011;40603;48.774;8.916;2023-05-21T03:36:07;27.42;;;18.17;;
54705;SDS011;40603;48.774;8.916;2023-05-21T03:38:33;25.35;;;17.33;;
54705;SDS011;40603;48.774;8.916;2023-05-21T03:40:58;22.17;;;15.40;;
54705;SDS011;40603;48.774;8.916;2023-05-21T03:43:23;23.90;;;17.05;;
54705;SDS011;40603;48.774;8.916;2023-05-21T03:45:49;22.30;;;15.98;;
54705;SDS011;40603;48.774;8.916;2023-05-21T03:48:14;25.58;;;17.77;;
54705;SDS011;40603;48.774;8.916;2023-05-21T03:50:39;25.42;;;18.15;;
54705;SDS011;40603;48.774;8.916;2023-05-21T03:53:05;24.33;;;16.98;;
54705;SDS011;40603;48.774;8.916;2023-05-21T03:55:30;22.83;;;16.80;;
54705;SDS011;40603;48.774;8.916;2023-05-21T03:57:55;23.77;;;16.85;;
54705;SDS011;40603;48.774;8.916;2023-05-21T04:00:21;24.60;;;16.42;;
54705;SDS011;40603;48.774;8.916;2023-05-21T04:02:46;27.42;;;17.35;;
54705;SDS011;40603;48.774;8.916;2023-05-21T04:05:11;26.73;;;18.48;;
54705;SDS011;40603;48.774;8.916;2023-05-21T04:07:37;25.13;;;17.25;;
54705;SDS011;40603;48.774;8.916;2023-05-21T04:10:02;24.45;;;17.08;;
54705;SDS011;40603;48.774;8.916;2023-05-21T04:12:28;25.83;;;17.50;;
54705;SDS011;40603;48.774;8.916;2023-05-21T04:14:53;23.95;;;17.42;;
54705;SDS011;40603;48.774;8.916;2023-05-21T04:17:19;26.33;;;17.35;;
54705;SDS011;40603;48.774;8.916;2023-05-21T04:19:44;25.00;;;17.98;;
54705;SDS011;40603;48.774;8.916;2023-05-21T04:22:10;28.02;;;19.25;;
54705;SDS011;40603;48.774;8.916;2023-05-21T04:24:36;26.20;;;17.77;;
54705;SDS011;40603;48.774;8.916;2023-05-21T04:27:02;27.90;;;18.55;;
54705;SDS011;40603;48.774;8.916;2023-05-21T04:29:27;24.20;;;17.67;;
54705;SDS011;40603;48.774;8.916;2023-05-21T04:31:53;24.10;;;16.92;;
54705;SDS011;40603;48.774;8.916;2023-05-21T04:34:19;24.65;;;17.70;;
54705;SDS011;40603;48.774;8.916;2023-05-21T04:36:44;21.70;;;16.55;;
54705;SDS011;40603;48.774;8.916;2023-05-21T04:39:10;23.98;;;17.58;;
54705;SDS011;40603;48.774;8.916;2023-05-21T04:41:36;22.63;;;17.42;;
54705;SDS011;40603;48.774;8.916;2023-05-21T04:44:02;24.90;;;17.67;;
54705;SDS011;40603;48.774;8.916;2023-05-21T04:46:28;26.35;;;17.42;;
54705;SDS011;40603;48.774;8.916;2023-05-21T04:48:54;22.38;;;16.55;;
54705;SDS011;40603;48.774;8.916;2023-05-21T04:51:20;25.98;;;17.55;;
54705;SDS011;40603;48.774;8.916;2023-05-21T04:53:46;22.92;;;17.50;;
54705;SDS011;40603;48.774;8.916;2023-05-21T04:56:13;26.38;;;18.65;;
54705;SDS011;40603;48.774;8.916;2023-05-21T04:58:39;24.05;;;15.85;;
54705;SDS011;40603;48.774;8.916;2023-05-21T05:01:05;28.45;;;17.92;;
54705;SDS011;40603;48.774;8.916;2023-05-21T05:03:32;28.05;;;18.05;;
54705;SDS011;40603;48.774;8.916;2023-05-21T05:05:58;26.75;;;18.48;;
54705;SDS011;40603;48.774;8.916;2023-05-21T05:08:23;30.75;;;18.27;;
54705;SDS011;40603;48.774;8.916;2023-05-21T05:10:48;26.77;;;18.92;;
54705;SDS011;40603;48.774;8.916;2023-05-21T05:13:14;26.05;;;17.52;;
54705;SDS011;40603;48.774;8.916;2023-05-21T05:15:39;25.35;;;17.85;;
54705;SDS011;40603;48.774;8.916;2023-05-21T05:18:05;26.13;;;17.52;;
54705;SDS011;40603;48.774;8.916;2023-05-21T05:20:32;23.00;;;17.00;;
54705;SDS011;40603;48.774;8.916;2023-05-21T05:22:57;23.38;;;17.42;;
54705;SDS011;40603;48.774;8.916;2023-05-21T05:25:23;25.02;;;18.23;;
54705;SDS011;40603;48.774;8.916;2023-05-21T05:27:48;24.27;;;16.77;;
54705;SDS011;40603;48.774;8.916;2023-05-21T05:30:13;27.00;;;19.27;;
54705;SDS011;40603;48.774;8.916;2023-05-21T05:32:39;29.25;;;17.83;;
54705;SDS011;40603;48.774;8.916;2023-05-21T05:35:04;28.63;;;17.88;;
54705;SDS011;40603;48.774;8.916;2023-05-21T05:37:30;23.33;;;17.20;;
54705;SDS011;40603;48.774;8.916;2023-05-21T05:39:57;23.80;;;17.40;;
54705;SDS011;40603;48.774;8.916;2023-05-21T05:42:22;27.58;;;17.65;;
54705;SDS011;40603;48.774;8.916;2023-05-21T05:44:48;25.02;;;18.25;;
54705;SDS011;40603;48.774;8.916;2023-05-21T05:47:13;23.80;;;16.48;;
54705;SDS011;40603;48.774;8.916;2023-05-21T05:49:38;23.80;;;17.40;;
54705;SDS011;40603;48.774;8.916;2023-05-21T05:52:04;25.85;;;17.38;;
54705;SDS011;40603;48.774;8.916;2023-05-21T05:54:30;24.35;;;17.52;;
54705;SDS011;40603;48.774;8.916;2023-05-21T05:56:56;23.13;;;17.20;;
54705;SDS011;40603;48.774;8.916;2023-05-21T05:59:21;23.33;;;17.23;;
54705;SDS011;40603;48.774;8.916;2023-05-21T06:01:46;25.90;;;16.83;;
54705;SDS011;40603;48.774;8.916;2023-05-21T06:04:11;23.65;;;17.10;;
54705;SDS011;40603;48.774;8.916;2023-05-21T06:06:37;23.95;;;17.45;;
54705;SDS011;40603;48.774;8.916;2023-05-21T06:09:02;26.00;;;18.48;;
54705;SDS011;40603;48.774;8.916;2023-05-21T06:11:28;24.70;;;17.40;;
54705;SDS011;40603;48.774;8.916;2023-05-21T06:13:53;22.92;;;16.75;;
54705;SDS011;40603;48.774;8.916;2023-05-21T06:16:18;23.20;;;15.70;;
54705;SDS011;40603;48.774;8.916;2023-05-21T06:18:44;24.95;;;16.80;;
54705;SDS011;40603;48.774;8.916;2023-05-21T06:21:09;24.63;;;15.82;;
54705;SDS011;40603;48.774;8.916;2023-05-21T06:23:34;22.88;;;16.10;;
54705;SDS011;40603;48.774;8.916;2023-05-21T06:26:01;21.35;;;15.32;;
54705;SDS011;40603;48.774;8.916;2023-05-21T06:28:27;26.15;;;15.80;;
54705;SDS011;40603;48.774;8.916;2023-05-21T06:30:52;23.02;;;14.80;;
54705;SDS011;40603;48.774;8.916;2023-05-21T06:33:18;19.85;;;14.75;;
54705;SDS011;40603;48.774;8.916;2023-05-21T06:35:43;20.02;;;14.43;;
54705;SDS011;40603;48.774;8.916;2023-05-21T06:38:08;19.20;;;14.77;;
54705;SDS011;40603;48.774;8.916;2023-05-21T06:40:33;18.42;;;13.40;;
54705;SDS011;40603;48.774;8.916;2023-05-21T06:42:59;19.08;;;13.93;;
54705;SDS011;40603;48.774;8.916;2023-05-21T06:45:24;21.25;;;13.82;;
54705;SDS011;40603;48.774;8.916;2023-05-21T06:47:50;19.67;;;13.48;;
54705;SDS011;40603;48.774;8.916;2023-05-21T06:50:15;17.77;;;13.93;;
54705;SDS011;40603;48.774;8.916;2023-05-21T06:52:40;22.67;;;14.48;;
54705;SDS011;40603;48.774;8.916;2023-05-21T06:55:06;17.95;;;13.48;;
54705;SDS011;40603;48.774;8.916;2023-05-21T06:57:31;20.70;;;13.13;;
54705;SDS011;40603;48.774;8.916;2023-05-21T06:59:57;18.25;;;13.40;;
54705;SDS011;40603;48.774;8.916;2023-05-21T07:02:22;17.92;;;13.93;;
54705;SDS011;40603;48.774;8.916;2023-05-21T07:04:47;19.95;;;13.77;;
54705;SDS011;40603;48.774;8.916;2023-05-21T07:07:13;18.30;;;13.15;;
54705;SDS011;40603;48.774;8.916;2023-05-21T07:09:38;19.67;;;13.15;;
54705;SDS011;40603;48.774;8.916;2023-05-21T07:12:03;19.33;;;12.60;;
54705;SDS011;40603;48.774;8.916;2023-05-21T07:14:29;19.70;;;13.00;;
54705;SDS011;40603;48.774;8.916;2023-05-21T07:16:54;16.05;;;12.68;;
54705;SDS011;40603;48.774;8.916;2023-05-21T07:19:19;19.98;;;12.38;;
54705;SDS011;40603;48.774;8.916;2023-05-21T07:21:45;19.35;;;12.77;;
54705;SDS011;40603;48.774;8.916;2023-05-21T07:24:10;17.65;;;13.13;;
54705;SDS011;40603;48.774;8.916;2023-05-21T07:26:36;22.42;;;14.10;;
54705;SDS011;40603;48.774;8.916;2023-05-21T07:29:01;18.45;;;13.70;;
54705;SDS011;40603;48.774;8.916;2023-05-21T07:31:26;17.17;;;13.40;;
54705;SDS011;40603;48.774;8.916;2023-05-21T07:33:52;17.20;;;12.50;;
54705;SDS011;40603;48.774;8.916;2023-05-21T07:36:17;16.30;;;12.82;;
54705;SDS011;40603;48.774;8.916;2023-05-21T07:38:42;17.33;;;12.98;;
54705;SDS011;40603;48.774;8.916;2023-05-21T07:41:08;22.15;;;13.27;;
54705;SDS011;40603;48.774;8.916;2023-05-21T07:43:34;21.90;;;14.07;;
54705;SDS011;40603;48.774;8.916;2023-05-21T07:45:59;19.55;;;13.38;;
54705;SDS011;40603;48.774;8.916;2023-05-21T07:48:25;17.63;;;13.68;;
54705;SDS011;40603;48.774;8.916;2023-05-21T07:50:50;17.45;;;12.30;;
54705;SDS011;40603;48.774;8.916;2023-05-21T07:53:16;14.98;;;11.75;;
54705;SDS011;40603;48.774;8.916;2023-05-21T07:55:42;17.02;;;12.27;;
54705;SDS011;40603;48.774;8.916;2023-05-21T07:58:13;16.40;;;12.27;;
54705;SDS011;40603;48.774;8.916;2023-05-21T08:00:42;16.23;;;12.50;;
54705;SDS011;40603;48.774;8.916;2023-05-21T08:03:09;18.80;;;12.60;;
54705;SDS011;40603;48.774;8.916;2023-05-21T08:05:35;15.55;;;11.43;;
54705;SDS011;40603;48.774;8.916;2023-05-21T08:08:01;14.93;;;12.18;;
54705;SDS011;40603;48.774;8.916;2023-05-21T08:10:26;15.70;;;11.25;;
54705;SDS011;40603;48.774;8.916;2023-05-21T08:12:51;16.63;;;11.23;;
54705;SDS011;40603;48.774;8.916;2023-05-21T08:15:16;16.70;;;12.32;;
54705;SDS011;40603;48.774;8.916;2023-05-21T08:17:42;14.93;;;11.18;;
54705;SDS011;40603;48.774;8.916;2023-05-21T08:20:07;18.15;;;11.07;;
54705;SDS011;40603;48.774;8.916;2023-05-21T08:22:33;15.10;;;11.25;;
54705;SDS011;40603;48.774;8.916;2023-05-21T08:24:58;13.35;;;10.98;;
54705;SDS011;40603;48.774;8.916;2023-05-21T08:27:23;15.98;;;10.48;;
54705;SDS011;40603;48.774;8.916;2023-05-21T08:29:49;13.90;;;10.88;;
54705;SDS011;40603;48.774;8.916;2023-05-21T08:32:14;15.65;;;11.05;;
54705;SDS011;40603;48.774;8.916;2023-05-21T08:34:39;13.05;;;10.43;;
54705;SDS011;40603;48.774;8.916;2023-05-21T08:37:04;16.27;;;10.48;;
54705;SDS011;40603;48.774;8.916;2023-05-21T08:39:30;14.45;;;11.25;;
54705;SDS011;40603;48.774;8.916;2023-05-21T08:41:56;14.20;;;9.57;;
54705;SDS011;40603;48.774;8.916;2023-05-21T08:44:28;12.35;;;9.80;;
54705;SDS011;40603;48.774;8.916;2023-05-21T08:46:56;15.60;;;10.23;;
54705;SDS011;40603;48.774;8.916;2023-05-21T08:49:22;13.60;;;9.55;;
54705;SDS011;40603;48.774;8.916;2023-05-21T08:51:50;14.18;;;10.70;;
54705;SDS011;40603;48.774;8.916;2023-05-21T08:54:17;14.73;;;10.15;;
54705;SDS011;40603;48.774;8.916;2023-05-21T08:56:42;13.65;;;9.50;;
54705;SDS011;40603;48.774;8.916;2023-05-21T08:59:13;14.80;;;9.65;;
54705;SDS011;40603;48.774;8.916;2023-05-21T09:01:39;16.27;;;10.05;;
54705;SDS011;40603;48.774;8.916;2023-05-21T09:04:06;13.02;;;9.82;;
54705;SDS011;40603;48.774;8.916;2023-05-21T09:06:32;11.38;;;9.38;;
54705;SDS011;40603;48.774;8.916;2023-05-21T09:09:05;11.70;;;9.85;;
54705;SDS011;40603;48.774;8.916;2023-05-21T09:11:40;13.20;;;9.95;;
54705;SDS011;40603;48.774;8.916;2023-05-21T09:14:06;13.00;;;9.25;;
54705;SDS011;40603;48.774;8.916;2023-05-21T09:16:31;11.98;;;9.23;;
54705;SDS011;40603;48.774;8.916;2023-05-21T09:18:56;11.55;;;10.25;;
54705;SDS011;40603;48.774;8.916;2023-05-21T09:21:23;12.98;;;9.75;;
54705;SDS011;40603;48.774;8.916;2023-05-21T09:23:56;12.88;;;10.63;;
54705;SDS011;40603;48.774;8.916;2023-05-21T09:26:23;14.80;;;10.15;;
54705;SDS011;40603;48.774;8.916;2023-05-21T09:28:50;13.02;;;9.38;;
54705;SDS011;40603;48.774;8.916;2023-05-21T09:31:16;14.18;;;10.45;;
54705;SDS011;40603;48.774;8.916;2023-05-21T09:33:45;14.55;;;10.98;;
54705;SDS011;40603;48.774;8.916;2023-05-21T09:36:14;15.45;;;10.80;;
54705;SDS011;40603;48.774;8.916;2023-05-21T09:38:43;12.30;;;10.02;;
54705;SDS011;40603;48.774;8.916;2023-05-21T09:41:08;15.05;;;11.00;;
54705;SDS011;40603;48.774;8.916;2023-05-21T09:43:34;15.75;;;11.00;;
54705;SDS011;40603;48.774;8.916;2023-05-21T09:46:00;17.65;;;10.45;;
54705;SDS011;40603;48.774;8.916;2023-05-21T09:48:41;15.90;;;11.10;;
54705;SDS011;40603;48.774;8.916;2023-05-21T09:51:07;14.82;;;10.60;;
54705;SDS011;40603;48.774;8.916;2023-05-21T09:53:33;13.27;;;10.65;;
54705;SDS011;40603;48.774;8.916;2023-05-21T09:55:59;13.98;;;10.82;;
54705;SDS011;40603;48.774;8.916;2023-05-21T09:58:24;14.55;;;11.32;;
54705;SDS011;40603;48.774;8.916;2023-05-21T10:00:51;16.48;;;11.30;;
54705;SDS011;40603;48.774;8.916;2023-05-21T10:03:16;16.98;;;10.80;;
54705;SDS011;40603;48.774;8.916;2023-05-21T10:05:43;13.35;;;11.25;;
54705;SDS011;40603;48.774;8.916;2023-05-21T10:08:09;18.80;;;11.73;;
54705;SDS011;40603;48.774;8.916;2023-05-21T10:10:36;14.70;;;10.90;;
54705;SDS011;40603;48.774;8.916;2023-05-21T10:13:03;14.02;;;10.43;;
54705;SDS011;40603;48.774;8.916;2023-05-21T10:15:31;13.82;;;10.50;;
54705;SDS011;40603;48.774;8.916;2023-05-21T10:17:59;15.55;;;10.85;;
54705;SDS011;40603;48.774;8.916;2023-05-21T10:20:25;18.60;;;11.48;;
54705;SDS011;40603;48.774;8.916;2023-05-21T10:22:51;14.30;;;10.13;;
54705;SDS011;40603;48.774;8.916;2023-05-21T10:25:17;13.05;;;9.90;;
54705;SDS011;40603;48.774;8.916;2023-05-21T10:27:43;15.07;;;9.73;;
54705;SDS011;40603;48.774;8.916;2023-05-21T10:30:08;14.30;;;10.13;;
54705;SDS011;40603;48.774;8.916;2023-05-21T10:32:34;11.00;;;9.70;;
54705;SDS011;40603;48.774;8.916;2023-05-21T10:34:59;12.20;;;9.20;;
54705;SDS011;40603;48.774;8.916;2023-05-21T10:37:26;11.90;;;9.55;;
54705;SDS011;40603;48.774;8.916;2023-05-21T10:39:52;14.95;;;10.85;;
54705;SDS011;40603;48.774;8.916;2023-05-21T10:45:11;13.63;;;9.50;;
54705;SDS011;40603;48.774;8.916;2023-05-21T10:51:06;13.13;;;10.05;;
54705;SDS011;40603;48.774;8.916;2023-05-21T10:53:44;11.93;;;8.65;;
54705;SDS011;40603;48.774;8.916;2023-05-21T10:56:37;13.07;;;8.15;;
54705;SDS011;40603;48.774;8.916;2023-05-21T11:01:46;11.48;;;8.30;;
54705;SDS011;40603;48.774;8.916;2023-05-21T11:04:12;10.38;;;7.97;;
54705;SDS011;40603;48.774;8.916;2023-05-21T11:06:39;11.10;;;7.97;;
54705;SDS011;40603;48.774;8.916;2023-05-21T11:09:11;11.35;;;8.35;;
54705;SDS011;40603;48.774;8.916;2023-05-21T11:11:41;11.98;;;8.60;;
54705;SDS011;40603;48.774;8.916;2023-05-21T11:14:25;11.57;;;8.03;;
54705;SDS011;40603;48.774;8.916;2023-05-21T11:17:02;9.38;;;7.63;;
54705;SDS011;40603;48.774;8.916;2023-05-21T11:19:47;9.95;;;7.30;;
54705;SDS011;40603;48.774;8.916;2023-05-21T11:24:43;9.07;;;7.47;;
54705;SDS011;40603;48.774;8.916;2023-05-21T11:27:09;10.57;;;8.60;;
54705;SDS011;40603;48.774;8.916;2023-05-21T11:29:37;10.23;;;6.95;;
54705;SDS011;40603;48.774;8.916;2023-05-21T11:32:05;12.57;;;7.85;;
54705;SDS011;40603;48.774;8.916;2023-05-21T11:34:37;9.85;;;7.30;;
54705;SDS011;40603;48.774;8.916;2023-05-21T11:39:44;10.48;;;7.53;;
54705;SDS011;40603;48.774;8.916;2023-05-21T11:42:10;12.05;;;7.55;;
54705;SDS011;40603;48.774;8.916;2023-05-21T11:44:39;10.15;;;8.18;;
54705;SDS011;40603;48.774;8.916;2023-05-21T11:47:08;13.43;;;7.88;;
54705;SDS011;40603;48.774;8.916;2023-05-21T11:49:36;9.23;;;7.53;;
54705;SDS011;40603;48.774;8.916;2023-05-21T11:52:02;7.78;;;6.57;;
54705;SDS011;40603;48.774;8.916;2023-05-21T11:54:29;8.63;;;7.18;;
54705;SDS011;40603;48.774;8.916;2023-05-21T11:56:58;8.20;;;7.30;;
54705;SDS011;40603;48.774;8.916;2023-05-21T11:59:24;6.82;;;6.13;;
54705;SDS011;40603;48.774;8.916;2023-05-21T12:01:49;10.38;;;6.93;;
54705;SDS011;40603;48.774;8.916;2023-05-21T12:04:15;7.25;;;5.93;;
54705;SDS011;40603;48.774;8.916;2023-05-21T12:06:43;7.78;;;5.78;;
54705;SDS011;40603;48.774;8.916;2023-05-21T12:09:09;9.52;;;7.32;;
54705;SDS011;40603;48.774;8.916;2023-05-21T12:11:36;8.93;;;6.65;;
54705;SDS011;40603;48.774;8.916;2023-05-21T12:14:05;11.20;;;6.97;;
54705;SDS011;40603;48.774;8.916;2023-05-21T12:16:31;10.55;;;6.57;;
54705;SDS011;40603;48.774;8.916;2023-05-21T12:18:56;8.20;;;6.47;;
54705;SDS011;40603;48.774;8.916;2023-05-21T12:21:22;9.05;;;6.38;;
54705;SDS011;40603;48.774;8.916;2023-05-21T12:23:47;7.95;;;6.45;;
54705;SDS011;40603;48.774;8.916;2023-05-21T12:26:12;9.50;;;6.53;;
54705;SDS011;40603;48.774;8.916;2023-05-21T12:28:38;7.63;;;6.30;;
54705;SDS011;40603;48.774;8.916;2023-05-21T12:31:03;9.15;;;6.28;;
54705;SDS011;40603;48.774;8.916;2023-05-21T12:33:32;7.55;;;6.60;;
54705;SDS011;40603;48.774;8.916;2023-05-21T12:35:58;9.48;;;6.43;;
54705;SDS011;40603;48.774;8.916;2023-05-21T12:38:28;9.13;;;6.80;;
54705;SDS011;40603;48.774;8.916;2023-05-21T12:40:55;8.05;;;5.80;;
54705;SDS011;40603;48.774;8.916;2023-05-21T12:43:20;7.63;;;5.70;;
54705;SDS011;40603;48.774;8.916;2023-05-21T12:45:45;8.20;;;5.53;;
54705;SDS011;40603;48.774;8.916;2023-05-21T12:48:11;7.00;;;5.95;;
54705;SDS011;40603;48.774;8.916;2023-05-21T12:50:39;7.38;;;5.50;;
54705;SDS011;40603;48.774;8.916;2023-05-21T12:53:07;6.63;;;5.93;;
54705;SDS011;40603;48.774;8.916;2023-05-21T12:55:33;7.03;;;5.35;;
54705;SDS011;40603;48.774;8.916;2023-05-21T12:58:03;8.02;;;5.38;;
54705;SDS011;40603;48.774;8.916;2023-05-21T13:00:32;5.65;;;5.05;;
54705;SDS011;40603;48.774;8.916;2023-05-21T13:02:57;7.75;;;5.75;;
54705;SDS011;40603;48.774;8.916;2023-05-21T13:05:24;7.57;;;5.25;;
54705;SDS011;40603;48.774;8.916;2023-05-21T13:07:50;7.38;;;5.55;;
54705;SDS011;40603;48.774;8.916;2023-05-21T13:10:15;8.75;;;6.28;;
54705;SDS011;40603;48.774;8.916;2023-05-21T13:12:41;8.10;;;5.53;;
54705;SDS011;40603;48.774;8.916;2023-05-21T13:15:06;7.70;;;5.00;;
54705;SDS011;40603;48.774;8.916;2023-05-21T13:17:32;8.13;;;5.90;;
54705;SDS011;40603;48.774;8.916;2023-05-21T13:22:33;7.53;;;4.80;;
54705;SDS011;40603;48.774;8.916;2023-05-21T13:25:03;5.72;;;4.72;;
54705;SDS011;40603;48.774;8.916;2023-05-21T13:27:29;7.53;;;5.43;;
54705;SDS011;40603;48.774;8.916;2023-05-21T13:29:54;6.45;;;5.15;;
54705;SDS011;40603;48.774;8.916;2023-05-21T13:32:19;8.43;;;5.03;;
54705;SDS011;40603;48.774;8.916;2023-05-21T13:34:45;8.35;;;5.38;;
54705;SDS011;40603;48.774;8.916;2023-05-21T13:37:11;6.53;;;4.97;;
54705;SDS011;40603;48.774;8.916;2023-05-21T13:39:37;6.05;;;4.85;;
54705;SDS011;40603;48.774;8.916;2023-05-21T13:42:02;9.10;;;5.95;;
54705;SDS011;40603;48.774;8.916;2023-05-21T13:44:29;7.10;;;4.90;;
54705;SDS011;40603;48.774;8.916;2023-05-21T13:46:57;5.38;;;4.88;;
54705;SDS011;40603;48.774;8.916;2023-05-21T13:49:22;5.88;;;5.05;;
54705;SDS011;40603;48.774;8.916;2023-05-21T13:51:47;6.72;;;4.97;;
54705;SDS011;40603;48.774;8.916;2023-05-21T13:54:13;5.85;;;5.18;;
54705;SDS011;40603;48.774;8.916;2023-05-21T13:56:39;6.28;;;5.00;;
54705;SDS011;40603;48.774;8.916;2023-05-21T13:59:04;7.10;;;5.68;;
54705;SDS011;40603;48.774;8.916;2023-05-21T14:01:30;7.25;;;5.57;;
54705;SDS011;40603;48.774;8.916;2023-05-21T14:03:55;6.18;;;5.22;;
54705;SDS011;40603;48.774;8.916;2023-05-21T14:06:20;6.43;;;5.32;;
54705;SDS011;40603;48.774;8.916;2023-05-21T14:08:46;7.13;;;5.32;;
54705;SDS011;40603;48.774;8.916;2023-05-21T14:11:11;6.65;;;5.32;;
54705;SDS011;40603;48.774;8.916;2023-05-21T14:13:36;10.82;;;5.70;;
54705;SDS011;40603;48.774;8.916;2023-05-21T14:16:02;7.78;;;5.75;;
54705;SDS011;40603;48.774;8.916;2023-05-21T14:18:27;7.78;;;5.35;;
54705;SDS011;40603;48.774;8.916;2023-05-21T14:20:52;7.85;;;5.95;;
54705;SDS011;40603;48.774;8.916;2023-05-21T14:23:18;7.72;;;5.45;;
54705;SDS011;40603;48.774;8.916;2023-05-21T14:25:43;6.53;;;5.55;;
54705;SDS011;40603;48.774;8.916;2023-05-21T14:28:08;8.82;;;5.90;;
54705;SDS011;40603;48.774;8.916;2023-05-21T14:30:34;7.68;;;5.93;;
54705;SDS011;40603;48.774;8.916;2023-05-21T14:32:59;8.68;;;5.35;;
54705;SDS011;40603;48.774;8.916;2023-05-21T14:35:25;7.88;;;5.43;;
54705;SDS011;40603;48.774;8.916;2023-05-21T14:37:51;7.78;;;5.60;;
54705;SDS011;40603;48.774;8.916;2023-05-21T14:40:17;6.55;;;5.43;;
54705;SDS011;40603;48.774;8.916;2023-05-21T14:42:42;5.65;;;5.10;;